createdAt,value
2023-03-06T00:00:46.420Z,85.38
2023-03-06T00:01:46.406Z,85.35
2023-03-06T00:02:46.403Z,84.86
2023-03-06T00:03:46.446Z,85.38
2023-03-06T00:04:46.403Z,87.07
2023-03-06T00:05:46.492Z,87.07
2023-03-06T00:06:46.356Z,86.90
2023-03-06T00:07:46.343Z,87.11
2023-03-06T00:08:46.355Z,86.90
2023-03-06T00:09:46.324Z,87.53
2023-03-06T00:10:46.317Z,87.63
2023-03-06T00:11:46.349Z,88.58
2023-03-06T00:12:46.328Z,88.48
2023-03-06T00:13:46.279Z,87.74
2023-03-06T00:14:46.297Z,87.11
2023-03-06T00:15:46.270Z,87.21
2023-03-06T00:16:46.257Z,87.15
2023-03-06T00:17:46.248Z,86.79
2023-03-06T00:18:46.232Z,86.72
2023-03-06T00:19:46.216Z,85.95
2023-03-06T00:20:46.249Z,86.62
2023-03-06T00:21:46.193Z,86.52
2023-03-06T00:22:46.198Z,87.25
2023-03-06T00:23:46.177Z,87.25
2023-03-06T00:24:46.164Z,87.25
2023-03-06T00:25:46.169Z,87.15
2023-03-06T00:26:46.145Z,86.10
2023-03-06T00:27:46.141Z,85.11
2023-03-06T00:28:46.127Z,85.78
2023-03-06T00:29:46.108Z,86.83
2023-03-06T00:30:46.202Z,86.87
2023-03-06T00:31:46.120Z,87.50
2023-03-06T00:32:46.081Z,87.68
2023-03-06T00:33:46.065Z,87.57
2023-03-06T00:34:46.066Z,87.71
2023-03-06T00:35:46.123Z,87.40
2023-03-06T00:36:46.055Z,86.83
2023-03-06T00:37:46.040Z,86.13
2023-03-06T00:38:46.014Z,85.99
2023-03-06T00:39:46.010Z,85.14
2023-03-06T00:40:46.006Z,84.30
2023-03-06T00:41:47.085Z,84.72
2023-03-06T00:42:45.972Z,84.69
2023-03-06T00:43:45.956Z,84.16
2023-03-06T00:44:45.951Z,84.27
2023-03-06T00:45:46.010Z,84.69
2023-03-06T00:46:45.940Z,84.16
2023-03-06T00:47:45.913Z,84.37
2023-03-06T00:48:45.907Z,83.95
2023-03-06T00:49:45.894Z,84.47
2023-03-06T00:50:45.884Z,85.11
2023-03-06T00:51:45.887Z,85.42
2023-03-06T00:52:45.890Z,85.31
2023-03-06T00:53:45.849Z,85.74
2023-03-06T00:54:45.845Z,85.11
2023-03-06T00:55:45.827Z,85.11
2023-03-06T00:56:45.822Z,85.11
2023-03-06T00:57:45.825Z,85.21
2023-03-06T00:58:45.808Z,85.21
2023-03-06T00:59:45.790Z,85.04
2023-03-06T01:00:45.797Z,84.79
2023-03-06T01:01:45.785Z,84.41
2023-03-06T01:02:45.774Z,84.47
2023-03-06T01:03:45.753Z,84.05
2023-03-06T01:04:45.738Z,84.05
2023-03-06T01:05:45.742Z,84.94
2023-03-06T01:06:45.713Z,83.42
2023-03-06T01:07:45.712Z,83.21
2023-03-06T01:08:45.730Z,82.12
2023-03-06T01:09:45.675Z,83.49
2023-03-06T01:10:45.670Z,84.16
2023-03-06T01:11:45.654Z,83.53
2023-03-06T01:12:45.644Z,83.11
2023-03-06T01:13:45.647Z,84.75
2023-03-06T01:14:45.633Z,84.47
2023-03-06T01:15:45.620Z,82.86
2023-03-06T01:16:45.676Z,82.89
2023-03-06T01:17:45.588Z,81.81
2023-03-06T01:18:45.582Z,80.58
2023-03-06T01:19:45.599Z,82.37
2023-03-06T01:20:45.586Z,82.37
2023-03-06T01:21:45.554Z,81.74
2023-03-06T01:22:45.549Z,79.60
2023-03-06T01:23:45.524Z,79.80
2023-03-06T01:24:45.540Z,80.65
2023-03-06T01:25:45.519Z,80.86
2023-03-06T01:26:45.508Z,80.86
2023-03-06T01:27:45.480Z,81.21
2023-03-06T01:28:45.474Z,81.52
2023-03-06T01:29:45.461Z,82.16
2023-03-06T01:30:45.459Z,82.09
2023-03-06T01:31:45.524Z,83.56
2023-03-06T01:32:45.432Z,83.04
2023-03-06T01:33:45.421Z,82.20
2023-03-06T01:34:45.419Z,81.74
2023-03-06T01:35:45.422Z,81.32
2023-03-06T01:36:45.389Z,81.74
2023-03-06T01:37:45.388Z,81.42
2023-03-06T01:38:45.368Z,81.10
2023-03-06T01:39:45.365Z,81.32
2023-03-06T01:40:45.365Z,81.10
2023-03-06T01:41:45.360Z,81.63
2023-03-06T01:42:46.813Z,82.05
2023-03-06T01:43:45.339Z,83.25
2023-03-06T01:44:45.307Z,83.00
2023-03-06T01:45:45.331Z,83.14
2023-03-06T01:46:45.314Z,83.63
2023-03-06T01:47:45.271Z,83.00
2023-03-06T01:48:45.270Z,82.82
2023-03-06T01:49:45.277Z,81.95
2023-03-06T01:50:45.246Z,82.72
2023-03-06T01:51:45.230Z,81.98
2023-03-06T01:52:45.222Z,82.26
2023-03-06T01:53:45.207Z,83.04
2023-03-06T01:54:45.210Z,83.56
2023-03-06T01:55:45.197Z,83.46
2023-03-06T01:56:45.214Z,82.72
2023-03-06T01:57:45.197Z,83.25
2023-03-06T01:58:45.167Z,83.36
2023-03-06T01:59:45.145Z,83.46
2023-03-06T02:00:45.218Z,81.84
2023-03-06T02:01:45.135Z,82.16
2023-03-06T02:02:45.147Z,82.16
2023-03-06T02:03:45.116Z,82.05
2023-03-06T02:04:45.098Z,81.70
2023-03-06T02:05:45.081Z,81.81
2023-03-06T02:06:45.083Z,81.35
2023-03-06T02:07:45.073Z,81.28
2023-03-06T02:08:45.054Z,81.32
2023-03-06T02:09:45.053Z,81.13
2023-03-06T02:10:45.034Z,81.17
2023-03-06T02:11:45.140Z,80.93
2023-03-06T02:12:45.034Z,81.03
2023-03-06T02:13:45.008Z,82.01
2023-03-06T02:14:44.997Z,82.58
2023-03-06T02:15:44.995Z,82.16
2023-03-06T02:16:45.007Z,81.32
2023-03-06T02:17:44.962Z,81.88
2023-03-06T02:18:44.950Z,81.88
2023-03-06T02:19:44.956Z,81.18
2023-03-06T02:20:44.929Z,81.28
2023-03-06T02:21:44.926Z,81.39
2023-03-06T02:22:44.907Z,80.97
2023-03-06T02:23:44.892Z,80.76
2023-03-06T02:24:44.884Z,80.65
2023-03-06T02:25:44.886Z,80.72
2023-03-06T02:26:44.874Z,80.76
2023-03-06T02:27:44.858Z,78.61
2023-03-06T02:28:44.879Z,76.82
2023-03-06T02:29:44.841Z,75.98
2023-03-06T02:30:44.869Z,75.13
2023-03-06T02:31:44.824Z,75.03
2023-03-06T02:32:44.825Z,75.03
2023-03-06T02:33:44.790Z,75.13
2023-03-06T02:34:44.806Z,74.47
2023-03-06T02:35:44.774Z,75.66
2023-03-06T02:36:44.769Z,76.92
2023-03-06T02:37:44.759Z,78.19
2023-03-06T02:38:44.740Z,78.72
2023-03-06T02:39:44.730Z,79.56
2023-03-06T02:40:44.729Z,80.19
2023-03-06T02:41:44.702Z,80.82
2023-03-06T02:42:44.707Z,81.35
2023-03-06T02:43:44.696Z,82.02
2023-03-06T02:44:44.711Z,82.55
2023-03-06T02:45:44.713Z,82.44
2023-03-06T02:46:44.660Z,82.13
2023-03-06T02:47:44.635Z,81.98
2023-03-06T02:48:44.626Z,82.30
2023-03-06T02:49:44.627Z,82.20
2023-03-06T02:50:44.607Z,82.20
2023-03-06T02:51:44.603Z,81.67
2023-03-06T02:52:44.584Z,81.46
2023-03-06T02:53:44.595Z,80.93
2023-03-06T02:54:44.565Z,80.90
2023-03-06T02:55:44.568Z,81.77
2023-03-06T02:56:44.556Z,80.82
2023-03-06T02:57:44.580Z,79.88
2023-03-06T02:58:44.514Z,80.72
2023-03-06T02:59:44.508Z,81.88
2023-03-06T03:00:44.543Z,81.18
2023-03-06T03:01:44.559Z,81.28
2023-03-06T03:02:44.470Z,81.81
2023-03-06T03:03:44.463Z,81.81
2023-03-06T03:04:44.495Z,82.27
2023-03-06T03:05:44.460Z,81.11
2023-03-06T03:06:44.428Z,80.44
2023-03-06T03:07:44.449Z,80.44
2023-03-06T03:08:44.406Z,82.17
2023-03-06T03:09:44.408Z,82.55
2023-03-06T03:10:44.387Z,83.11
2023-03-06T03:11:44.377Z,83.75
2023-03-06T03:12:44.385Z,83.07
2023-03-06T03:13:44.366Z,83.39
2023-03-06T03:14:44.350Z,83.53
2023-03-06T03:15:44.433Z,83.01
2023-03-06T03:16:44.342Z,83.01
2023-03-06T03:17:44.327Z,82.59
2023-03-06T03:18:44.326Z,83.11
2023-03-06T03:19:44.295Z,82.27
2023-03-06T03:20:44.279Z,82.34
2023-03-06T03:21:44.284Z,82.06
2023-03-06T03:22:44.259Z,82.34
2023-03-06T03:23:44.257Z,81.63
2023-03-06T03:24:44.318Z,81.49
2023-03-06T03:25:44.243Z,81.39
2023-03-06T03:26:44.217Z,82.13
2023-03-06T03:27:44.222Z,82.97
2023-03-06T03:28:44.202Z,83.60
2023-03-06T03:29:44.204Z,83.18
2023-03-06T03:30:44.179Z,83.67
2023-03-06T03:31:44.170Z,82.34
2023-03-06T03:32:44.185Z,82.30
2023-03-06T03:33:44.171Z,83.56
2023-03-06T03:34:44.133Z,83.29
2023-03-06T03:35:44.174Z,82.65
2023-03-06T03:36:44.118Z,81.18
2023-03-06T03:37:44.109Z,80.62
2023-03-06T03:38:44.096Z,79.84
2023-03-06T03:39:44.129Z,79.74
2023-03-06T03:40:44.073Z,79.38
2023-03-06T03:41:44.067Z,78.78
2023-03-06T03:42:44.059Z,78.86
2023-03-06T03:43:44.042Z,77.70
2023-03-06T03:44:44.064Z,77.35
2023-03-06T03:45:44.047Z,77.70
2023-03-06T03:46:44.130Z,77.91
2023-03-06T03:47:43.999Z,77.91
2023-03-06T03:48:44.008Z,77.56
2023-03-06T03:49:43.997Z,77.66
2023-03-06T03:50:43.966Z,76.93
2023-03-06T03:51:43.981Z,76.61
2023-03-06T03:52:43.945Z,76.61
2023-03-06T03:53:43.942Z,76.47
2023-03-06T03:54:43.926Z,76.68
2023-03-06T03:55:43.914Z,76.79
2023-03-06T03:56:43.899Z,76.72
2023-03-06T03:57:43.916Z,76.72
2023-03-06T03:58:43.876Z,76.93
2023-03-06T03:59:43.872Z,77.35
2023-03-06T04:00:43.856Z,77.66
2023-03-06T04:01:43.871Z,77.76
2023-03-06T04:02:43.851Z,77.24
2023-03-06T04:03:43.848Z,77.07
2023-03-06T04:04:43.882Z,76.82
2023-03-06T04:05:43.804Z,76.40
2023-03-06T04:06:43.790Z,76.40
2023-03-06T04:07:43.795Z,75.87
2023-03-06T04:08:43.770Z,75.87
2023-03-06T04:09:43.774Z,75.56
2023-03-06T04:10:43.784Z,74.89
2023-03-06T04:11:43.743Z,75.63
2023-03-06T04:12:43.736Z,76.79
2023-03-06T04:13:43.774Z,76.68
2023-03-06T04:14:43.704Z,76.93
2023-03-06T04:15:43.700Z,77.24
2023-03-06T04:16:43.702Z,76.96
2023-03-06T04:17:43.689Z,77.03
2023-03-06T04:18:43.689Z,76.51
2023-03-06T04:19:43.653Z,75.98
2023-03-06T04:20:43.685Z,75.67
2023-03-06T04:21:43.681Z,75.03
2023-03-06T04:22:43.640Z,74.82
2023-03-06T04:23:43.613Z,74.47
2023-03-06T04:24:43.603Z,75.21
2023-03-06T04:25:43.589Z,74.16
2023-03-06T04:26:43.576Z,74.05
2023-03-06T04:27:43.584Z,75.21
2023-03-06T04:28:43.564Z,73.91
2023-03-06T04:29:43.549Z,74.47
2023-03-06T04:30:43.545Z,75.77
2023-03-06T04:31:43.588Z,75.67
2023-03-06T04:32:43.601Z,75.87
2023-03-06T04:33:43.508Z,75.42
2023-03-06T04:34:43.508Z,75.31
2023-03-06T04:35:43.571Z,76.89
2023-03-06T04:36:43.499Z,76.61
2023-03-06T04:37:43.469Z,76.72
2023-03-06T04:38:43.485Z,77.03
2023-03-06T04:39:43.442Z,77.28
2023-03-06T04:40:44.941Z,79.06
2023-03-06T04:41:43.433Z,77.38
2023-03-06T04:42:43.407Z,76.19
2023-03-06T04:43:43.402Z,76.72
2023-03-06T04:44:43.397Z,77.87
2023-03-06T04:45:43.423Z,77.66
2023-03-06T04:46:43.394Z,77.59
2023-03-06T04:47:43.356Z,77.14
2023-03-06T04:48:43.343Z,77.35
2023-03-06T04:49:43.354Z,76.61
2023-03-06T04:50:43.332Z,76.72
2023-03-06T04:51:43.315Z,76.37
2023-03-06T04:52:43.325Z,76.40
2023-03-06T04:53:43.295Z,76.05
2023-03-06T04:54:43.282Z,75.31
2023-03-06T04:55:43.291Z,74.86
2023-03-06T04:56:43.287Z,74.96
2023-03-06T04:57:43.258Z,74.44
2023-03-06T04:58:43.254Z,74.86
2023-03-06T04:59:43.231Z,76.54
2023-03-06T05:00:43.247Z,76.37
2023-03-06T05:01:43.220Z,76.33
2023-03-06T05:02:43.200Z,76.82
2023-03-06T05:03:43.195Z,77.03
2023-03-06T05:04:43.189Z,77.31
2023-03-06T05:05:43.165Z,76.72
2023-03-06T05:06:43.151Z,76.72
2023-03-06T05:07:43.140Z,77.56
2023-03-06T05:08:43.147Z,77.24
2023-03-06T05:09:43.147Z,77.28
2023-03-06T05:10:43.116Z,76.72
2023-03-06T05:11:43.101Z,76.75
2023-03-06T05:12:43.093Z,77.38
2023-03-06T05:13:43.090Z,78.54
2023-03-06T05:14:43.089Z,78.02
2023-03-06T05:15:43.059Z,77.17
2023-03-06T05:16:43.174Z,76.54
2023-03-06T05:17:43.029Z,76.86
2023-03-06T05:18:43.019Z,75.94
2023-03-06T05:19:43.009Z,76.29
2023-03-06T05:20:43.021Z,76.54
2023-03-06T05:21:43.001Z,77.38
2023-03-06T05:22:42.977Z,78.02
2023-03-06T05:23:42.967Z,77.70
2023-03-06T05:24:42.980Z,77.07
2023-03-06T05:25:42.949Z,76.75
2023-03-06T05:26:42.941Z,76.54
2023-03-06T05:27:42.936Z,76.65
2023-03-06T05:28:42.919Z,77.07
2023-03-06T05:29:42.900Z,75.21
2023-03-06T05:30:42.889Z,74.71
2023-03-06T05:31:42.939Z,75.38
2023-03-06T05:32:42.977Z,76.51
2023-03-06T05:33:42.875Z,76.40
2023-03-06T05:34:42.843Z,76.93
2023-03-06T05:35:42.862Z,77.56
2023-03-06T05:36:42.824Z,77.45
2023-03-06T05:37:42.832Z,76.47
2023-03-06T05:38:42.813Z,75.00
2023-03-06T05:39:42.809Z,75.17
2023-03-06T05:40:42.821Z,74.65
2023-03-06T05:41:42.779Z,74.86
2023-03-06T05:42:42.768Z,74.44
2023-03-06T05:43:42.762Z,75.70
2023-03-06T05:44:42.755Z,76.96
2023-03-06T05:45:42.779Z,76.75
2023-03-06T05:46:42.724Z,76.43
2023-03-06T05:47:42.723Z,75.91
2023-03-06T05:48:42.711Z,76.54
2023-03-06T05:49:42.705Z,76.57
2023-03-06T05:50:42.679Z,76.65
2023-03-06T05:51:42.674Z,76.79
2023-03-06T05:52:42.660Z,77.00
2023-03-06T05:53:42.652Z,76.57
2023-03-06T05:54:42.640Z,75.52
2023-03-06T05:55:42.639Z,75.73
2023-03-06T05:56:42.975Z,75.84
2023-03-06T05:57:42.615Z,75.10
2023-03-06T05:58:42.602Z,74.58
2023-03-06T05:59:43.294Z,75.00
2023-03-06T06:00:42.574Z,74.68
2023-03-06T06:01:42.569Z,73.70
2023-03-06T06:02:42.581Z,73.74
2023-03-06T06:03:42.559Z,73.52
2023-03-06T06:04:42.537Z,73.49
2023-03-06T06:05:42.513Z,74.76
2023-03-06T06:06:42.505Z,76.43
2023-03-06T06:07:42.497Z,76.79
2023-03-06T06:08:42.494Z,76.47
2023-03-06T06:09:42.478Z,77.42
2023-03-06T06:10:42.482Z,77.21
2023-03-06T06:11:42.448Z,77.21
2023-03-06T06:12:42.491Z,76.79
2023-03-06T06:13:42.433Z,76.47
2023-03-06T06:14:42.419Z,74.16
2023-03-06T06:15:42.423Z,73.60
2023-03-06T06:16:42.425Z,75.07
2023-03-06T06:17:42.383Z,74.33
2023-03-06T06:18:42.398Z,75.07
2023-03-06T06:19:42.371Z,73.70
2023-03-06T06:20:42.354Z,72.83
2023-03-06T06:21:42.344Z,73.46
2023-03-06T06:22:42.360Z,73.39
2023-03-06T06:23:42.333Z,73.46
2023-03-06T06:24:42.309Z,73.67
2023-03-06T06:25:42.305Z,73.14
2023-03-06T06:26:42.291Z,72.41
2023-03-06T06:27:42.275Z,71.67
2023-03-06T06:28:42.301Z,72.20
2023-03-06T06:29:42.264Z,72.90
2023-03-06T06:30:42.259Z,73.43
2023-03-06T06:31:42.235Z,73.53
2023-03-06T06:32:42.285Z,73.63
2023-03-06T06:33:42.227Z,74.05
2023-03-06T06:34:42.202Z,74.68
2023-03-06T06:35:42.226Z,74.48
2023-03-06T06:36:42.181Z,74.68
2023-03-06T06:37:42.170Z,73.95
2023-03-06T06:38:42.180Z,73.63
2023-03-06T06:39:42.146Z,73.43
2023-03-06T06:40:42.144Z,74.76
2023-03-06T06:41:59.357Z,75.32
2023-03-06T06:42:43.117Z,75.67
2023-03-06T06:43:42.106Z,74.48
2023-03-06T06:44:42.185Z,74.16
2023-03-06T06:45:42.082Z,75.32
2023-03-06T06:47:43.130Z,75.74
2023-03-06T06:48:42.057Z,75.14
2023-03-06T06:49:42.041Z,76.47
2023-03-06T06:50:42.031Z,76.79
2023-03-06T06:51:42.031Z,75.24
2023-03-06T06:52:42.079Z,75.42
2023-03-06T06:53:42.001Z,75.42
2023-03-06T06:54:41.992Z,75.70
2023-03-06T06:55:41.979Z,76.37
2023-03-06T06:56:41.972Z,76.26
2023-03-06T06:57:41.958Z,76.86
2023-03-06T06:58:41.968Z,76.79
2023-03-06T06:59:41.941Z,76.15
2023-03-06T07:00:41.950Z,76.12
2023-03-06T07:01:41.964Z,76.23
2023-03-06T07:02:41.914Z,76.93
2023-03-06T07:03:41.910Z,76.54
2023-03-06T07:04:52.775Z,76.40
2023-03-06T07:05:42.879Z,76.54
2023-03-06T07:06:41.870Z,76.23
2023-03-06T07:07:41.854Z,76.51
2023-03-06T07:08:41.843Z,76.29
2023-03-06T07:09:41.846Z,76.51
2023-03-06T07:10:41.835Z,76.72
2023-03-06T07:11:41.824Z,76.79
2023-03-06T07:12:41.802Z,77.21
2023-03-06T07:13:41.796Z,77.45
2023-03-06T07:14:41.790Z,76.26
2023-03-06T07:15:41.819Z,76.89
2023-03-06T07:16:41.776Z,77.45
2023-03-06T07:17:41.762Z,77.42
2023-03-06T07:18:41.738Z,76.47
2023-03-06T07:19:41.764Z,76.37
2023-03-06T07:20:41.740Z,76.12
2023-03-06T07:21:41.713Z,76.37
2023-03-06T07:22:50.757Z,75.81
2023-03-06T07:23:42.687Z,74.97
2023-03-06T07:24:41.686Z,74.87
2023-03-06T07:25:41.667Z,74.55
2023-03-06T07:26:41.653Z,75.07
2023-03-06T07:27:41.710Z,74.65
2023-03-06T07:28:51.865Z,73.08
2023-03-06T07:29:42.626Z,72.98
2023-03-06T07:30:41.633Z,76.33
2023-03-06T07:31:41.605Z,76.43
2023-03-06T07:32:41.657Z,76.33
2023-03-06T07:33:41.624Z,76.43
2023-03-06T07:34:41.584Z,76.54
2023-03-06T07:35:41.625Z,76.09
2023-03-06T07:36:41.550Z,76.30
2023-03-06T07:37:41.549Z,75.39
2023-03-06T07:38:41.528Z,76.40
2023-03-06T07:39:41.592Z,76.72
2023-03-06T07:40:41.522Z,74.65
2023-03-06T07:41:41.501Z,74.24
2023-03-06T07:42:41.486Z,73.47
2023-03-06T07:43:41.477Z,74.10
2023-03-06T07:44:41.471Z,74.20
2023-03-06T07:45:41.505Z,74.48
2023-03-06T07:46:41.614Z,73.79
2023-03-06T07:47:41.437Z,73.75
2023-03-06T07:48:41.439Z,73.96
2023-03-06T07:49:41.426Z,74.48
2023-03-06T07:50:41.412Z,73.75
2023-03-06T07:51:41.456Z,74.10
2023-03-06T07:52:41.403Z,73.02
2023-03-06T07:53:41.379Z,73.12
2023-03-06T07:54:41.356Z,73.44
2023-03-06T07:55:41.356Z,72.70
2023-03-06T07:56:41.341Z,73.02
2023-03-06T07:57:41.365Z,72.81
2023-03-06T07:58:41.323Z,73.22
2023-03-06T07:59:41.303Z,72.88
2023-03-06T08:00:41.306Z,71.86
2023-03-06T08:01:41.300Z,72.14
2023-03-06T08:02:41.292Z,72.35
2023-03-06T08:03:41.342Z,72.25
2023-03-06T08:04:41.291Z,72.77
2023-03-06T08:05:41.240Z,72.25
2023-03-06T08:06:41.226Z,72.56
2023-03-06T08:07:41.228Z,72.46
2023-03-06T08:08:41.206Z,72.98
2023-03-06T08:09:41.234Z,72.56
2023-03-06T08:10:41.178Z,72.14
2023-03-06T08:11:41.175Z,71.41
2023-03-06T08:12:41.160Z,72.01
2023-03-06T08:13:41.169Z,72.22
2023-03-06T08:14:41.132Z,71.48
2023-03-06T08:15:41.208Z,71.59
2023-03-06T08:16:41.170Z,71.90
2023-03-06T08:17:41.108Z,72.71
2023-03-06T08:18:41.105Z,72.92
2023-03-06T08:19:41.094Z,71.80
2023-03-06T08:20:41.085Z,71.97
2023-03-06T08:21:41.069Z,71.34
2023-03-06T08:22:41.120Z,70.83
2023-03-06T08:23:41.049Z,71.14
2023-03-06T08:24:41.025Z,70.09
2023-03-06T08:25:41.035Z,69.74
2023-03-06T08:26:41.005Z,70.79
2023-03-06T08:27:40.994Z,70.27
2023-03-06T08:28:40.976Z,70.34
2023-03-06T08:29:40.967Z,69.92
2023-03-06T08:30:40.953Z,69.61
2023-03-06T08:31:41.018Z,70.03
2023-03-06T08:32:41.020Z,70.90
2023-03-06T08:33:40.973Z,71.59
2023-03-06T08:34:40.913Z,71.08
2023-03-06T08:35:40.930Z,71.59
2023-03-06T08:36:40.963Z,70.48
2023-03-06T08:37:40.986Z,69.51
2023-03-06T08:38:40.872Z,71.08
2023-03-06T08:39:40.858Z,70.76
2023-03-06T08:40:40.842Z,70.97
2023-03-06T08:41:40.878Z,70.73
2023-03-06T08:42:40.855Z,70.38
2023-03-06T08:43:40.813Z,69.76
2023-03-06T08:44:40.815Z,70.07
2023-03-06T08:45:40.903Z,67.22
2023-03-06T08:46:40.778Z,69.17
2023-03-06T08:47:40.801Z,65.70
2023-03-06T08:48:40.770Z,65.11
2023-03-06T08:49:40.753Z,64.04
2023-03-06T08:50:40.731Z,64.77
2023-03-06T08:51:40.730Z,66.93
2023-03-06T08:52:40.741Z,61.52
2023-03-06T08:53:43.518Z,62.14
2023-03-06T08:54:40.707Z,68.53
2023-03-06T08:55:40.683Z,66.60
2023-03-06T08:56:40.671Z,65.42
2023-03-06T08:57:40.679Z,66.96
2023-03-06T08:58:40.644Z,62.07
2023-03-06T08:59:40.673Z,60.55
2023-03-06T09:00:40.688Z,64.02
2023-03-06T09:01:40.703Z,63.81
2023-03-06T09:02:40.683Z,65.23
2023-03-06T09:03:40.594Z,62.57
2023-03-06T09:04:40.582Z,63.35
2023-03-06T09:05:40.607Z,64.25
2023-03-06T09:06:40.575Z,61.82
2023-03-06T09:07:40.567Z,60.91
2023-03-06T09:08:40.605Z,61.98
2023-03-06T09:09:40.527Z,63.02
2023-03-06T09:10:40.549Z,62.63
2023-03-06T09:11:40.531Z,63.08
2023-03-06T09:12:49.736Z,63.84
2023-03-06T09:13:41.484Z,65.09
2023-03-06T09:14:40.471Z,65.61
2023-03-06T09:15:40.466Z,64.36
2023-03-06T09:16:40.486Z,64.75
2023-03-06T09:17:40.540Z,64.01
2023-03-06T09:18:40.462Z,64.89
2023-03-06T09:19:40.421Z,63.78
2023-03-06T09:20:40.407Z,64.15
2023-03-06T09:21:40.401Z,64.98
2023-03-06T09:22:40.398Z,65.40
2023-03-06T09:23:40.413Z,64.80
2023-03-06T09:24:40.404Z,65.81
2023-03-06T09:25:40.366Z,65.37
2023-03-06T09:26:46.206Z,64.75
2023-03-06T09:27:41.335Z,64.22
2023-03-06T09:28:40.324Z,65.09
2023-03-06T09:29:40.340Z,66.30
2023-03-06T09:30:40.409Z,64.15
2023-03-06T09:31:40.298Z,64.59
2023-03-06T09:32:40.298Z,65.37
2023-03-06T09:33:40.271Z,65.26
2023-03-06T09:34:40.259Z,64.04
2023-03-06T09:35:40.353Z,64.87
2023-03-06T09:36:55.585Z,64.07
2023-03-06T09:37:41.260Z,64.80
2023-03-06T09:38:40.217Z,64.77
2023-03-06T09:39:40.209Z,64.25
2023-03-06T09:40:40.218Z,63.63
2023-03-06T09:41:40.212Z,64.61
2023-03-06T09:42:40.172Z,63.88
2023-03-06T09:43:40.181Z,63.33
2023-03-06T09:44:40.149Z,63.93
2023-03-06T09:45:40.176Z,63.54
2023-03-06T09:46:40.126Z,62.84
2023-03-06T09:47:40.141Z,63.67
2023-03-06T09:48:40.106Z,63.91
2023-03-06T09:49:40.114Z,64.09
2023-03-06T09:50:40.082Z,63.05
2023-03-06T09:51:40.071Z,63.62
2023-03-06T09:52:40.064Z,62.50
2023-03-06T09:53:40.076Z,62.71
2023-03-06T09:54:40.036Z,61.98
2023-03-06T09:55:40.052Z,63.31
2023-03-06T09:56:40.047Z,62.88
2023-03-06T09:57:40.021Z,63.48
2023-03-06T09:58:40.000Z,62.45
2023-03-06T09:59:40.029Z,61.51
2023-03-06T10:00:39.990Z,61.64
2023-03-06T10:01:39.994Z,62.96
2023-03-06T10:02:40.118Z,61.82
2023-03-06T10:03:39.942Z,61.02
2023-03-06T10:04:40.088Z,61.69
2023-03-06T10:05:39.977Z,62.00
2023-03-06T10:06:39.913Z,61.66
2023-03-06T10:07:39.900Z,61.08
2023-03-06T10:08:39.883Z,60.82
2023-03-06T10:09:39.874Z,58.54
2023-03-06T10:10:39.862Z,59.55
2023-03-06T10:11:39.885Z,59.14
2023-03-06T10:12:39.887Z,59.19
2023-03-06T10:13:39.831Z,60.57
2023-03-06T10:14:39.818Z,60.36
2023-03-06T10:15:39.856Z,59.32
2023-03-06T10:16:39.809Z,59.71
2023-03-06T10:17:40.436Z,59.40
2023-03-06T10:18:39.789Z,61.93
2023-03-06T10:19:39.769Z,59.63
2023-03-06T10:20:39.759Z,58.07
2023-03-06T10:21:39.758Z,58.02
2023-03-06T10:22:39.740Z,59.06
2023-03-06T10:23:39.775Z,58.00
2023-03-06T10:24:39.716Z,58.69
2023-03-06T10:25:39.709Z,56.00
2023-03-06T10:26:39.806Z,57.84
2023-03-06T10:27:39.686Z,58.02
2023-03-06T10:28:39.694Z,57.87
2023-03-06T10:29:40.172Z,56.62
2023-03-06T10:30:39.650Z,58.02
2023-03-06T10:31:39.641Z,57.66
2023-03-06T10:32:48.216Z,58.10
2023-03-06T10:33:40.620Z,59.39
2023-03-06T10:34:39.624Z,58.12
2023-03-06T10:35:39.631Z,57.48
2023-03-06T10:36:39.582Z,55.87
2023-03-06T10:37:39.581Z,55.87
2023-03-06T10:38:39.564Z,56.62
2023-03-06T10:39:39.559Z,56.03
2023-03-06T10:40:39.561Z,57.35
2023-03-06T10:41:39.564Z,57.56
2023-03-06T10:42:39.521Z,56.93
2023-03-06T10:43:39.514Z,57.84
2023-03-06T10:44:39.522Z,58.33
2023-03-06T10:45:48.893Z,55.98
2023-03-06T10:46:40.586Z,55.79
2023-03-06T10:47:39.483Z,55.49
2023-03-06T10:48:41.681Z,56.00
2023-03-06T10:49:39.445Z,57.84
2023-03-06T10:50:39.445Z,57.50
2023-03-06T10:51:39.436Z,57.99
2023-03-06T10:52:39.411Z,58.15
2023-03-06T10:53:39.417Z,57.06
2023-03-06T10:54:39.389Z,56.00
2023-03-06T10:55:39.386Z,57.24
2023-03-06T10:56:39.380Z,56.88
2023-03-06T10:57:39.359Z,58.54
2023-03-06T10:58:39.344Z,58.23
2023-03-06T10:59:39.372Z,57.84
2023-03-06T11:00:39.339Z,59.05
2023-03-06T11:01:39.413Z,59.55
2023-03-06T11:02:39.321Z,59.26
2023-03-06T11:03:39.303Z,59.90
2023-03-06T11:04:39.340Z,59.72
2023-03-06T11:05:39.310Z,59.56
2023-03-06T11:06:39.257Z,57.60
2023-03-06T11:07:39.251Z,58.04
2023-03-06T11:08:39.235Z,59.39
2023-03-06T11:09:39.238Z,58.84
2023-03-06T11:10:39.218Z,58.01
2023-03-06T11:11:39.230Z,57.73
2023-03-06T11:12:39.202Z,57.89
2023-03-06T11:13:39.187Z,59.55
2023-03-06T11:14:39.169Z,57.48
2023-03-06T11:15:39.168Z,59.52
2023-03-06T11:16:39.166Z,58.74
2023-03-06T11:17:39.159Z,58.04
2023-03-06T11:18:39.127Z,59.03
2023-03-06T11:19:39.125Z,59.05
2023-03-06T11:20:51.047Z,59.83
2023-03-06T11:21:40.096Z,60.50
2023-03-06T11:22:39.079Z,60.65
2023-03-06T11:23:39.093Z,60.34
2023-03-06T11:24:39.077Z,60.00
2023-03-06T11:25:39.054Z,59.18
2023-03-06T11:26:39.036Z,60.34
2023-03-06T11:27:39.024Z,61.30
2023-03-06T11:28:39.016Z,61.66
2023-03-06T11:29:39.155Z,59.56
2023-03-06T11:30:39.008Z,60.11
2023-03-06T11:31:39.000Z,60.47
2023-03-06T11:32:39.033Z,60.99
2023-03-06T11:33:38.954Z,61.69
2023-03-06T11:34:38.947Z,60.42
2023-03-06T11:35:38.975Z,59.72
2023-03-06T11:36:38.959Z,61.63
2023-03-06T11:37:38.911Z,61.45
2023-03-06T11:38:38.911Z,60.65
2023-03-06T11:39:38.888Z,63.37
2023-03-06T11:40:38.879Z,63.23
2023-03-06T11:41:38.892Z,62.23
2023-03-06T11:42:38.874Z,63.47
2023-03-06T11:43:38.842Z,63.03
2023-03-06T11:44:38.836Z,62.97
2023-03-06T11:45:38.822Z,62.48
2023-03-06T11:46:38.920Z,63.67
2023-03-06T11:47:38.852Z,61.98
2023-03-06T11:48:38.866Z,62.26
2023-03-06T11:49:38.778Z,61.08
2023-03-06T11:50:38.770Z,61.94
2023-03-06T11:51:38.772Z,62.92
2023-03-06T11:52:38.747Z,60.67
2023-03-06T11:53:38.754Z,60.21
2023-03-06T11:54:38.730Z,62.17
2023-03-06T11:55:38.713Z,62.38
2023-03-06T11:56:38.707Z,60.73
2023-03-06T11:57:38.702Z,61.99
2023-03-06T11:58:38.688Z,63.31
2023-03-06T11:59:38.702Z,63.07
2023-03-06T12:00:38.675Z,62.60
2023-03-06T12:01:38.667Z,61.29
2023-03-06T12:02:38.639Z,62.35
2023-03-06T12:03:38.632Z,63.16
2023-03-06T12:04:38.657Z,63.26
2023-03-06T12:05:38.684Z,62.59
2023-03-06T12:06:38.612Z,62.04
2023-03-06T12:07:38.582Z,61.94
2023-03-06T12:08:38.576Z,61.94
2023-03-06T12:09:38.571Z,63.01
2023-03-06T12:10:38.608Z,61.44
2023-03-06T12:11:38.566Z,59.46
2023-03-06T12:12:38.549Z,61.66
2023-03-06T12:13:38.530Z,61.60
2023-03-06T12:14:38.529Z,61.98
2023-03-06T12:15:38.494Z,62.06
2023-03-06T12:16:38.665Z,61.16
2023-03-06T12:17:38.513Z,61.60
2023-03-06T12:18:38.479Z,63.25
2023-03-06T12:19:38.449Z,60.60
2023-03-06T12:20:38.467Z,60.80
2023-03-06T12:21:38.447Z,61.32
2023-03-06T12:22:38.434Z,62.35
2023-03-06T12:23:38.449Z,61.83
2023-03-06T12:24:38.400Z,62.01
2023-03-06T12:25:38.383Z,62.08
2023-03-06T12:26:38.379Z,61.88
2023-03-06T12:27:38.365Z,61.54
2023-03-06T12:28:38.364Z,61.24
2023-03-06T12:29:38.361Z,61.52
2023-03-06T12:30:38.332Z,61.13
2023-03-06T12:31:38.351Z,61.57
2023-03-06T12:32:38.410Z,61.88
2023-03-06T12:33:38.319Z,61.91
2023-03-06T12:34:38.287Z,62.99
2023-03-06T12:35:38.378Z,61.98
2023-03-06T12:36:38.329Z,62.50
2023-03-06T12:37:38.268Z,62.82
2023-03-06T12:38:38.259Z,62.06
2023-03-06T12:39:38.229Z,62.66
2023-03-06T12:40:38.222Z,63.12
2023-03-06T12:41:38.249Z,63.22
2023-03-06T12:42:38.205Z,62.82
2023-03-06T12:43:40.042Z,61.98
2023-03-06T12:44:38.182Z,60.63
2023-03-06T12:45:38.390Z,61.77
2023-03-06T12:46:38.157Z,61.66
2023-03-06T12:47:38.170Z,59.50
2023-03-06T12:48:38.134Z,61.02
2023-03-06T12:49:38.131Z,60.49
2023-03-06T12:50:38.136Z,62.29
2023-03-06T12:51:38.101Z,63.47
2023-03-06T12:52:38.120Z,60.46
2023-03-06T12:53:38.120Z,60.33